DUB weather

Dublin Airport
Dublin, County Dublin, Ireland

Public forecast

Using degrees Celsius for public forecast. Weather courtesy of forecast.io.

METAR (pilot weather report)

Retrieved 2017/10/24 06:30 UTC (8 minutes ago):

EIDW 240630Z 22016KT 9999 FEW010 BKN014 BKN022 15/14 Q1006 NOSIG

TAF (pilot weather forecast)

Forecast is more than 12 hours old.

Retrieved 2017/10/22 00:10 UTC (2 days ago):

TAF EIDW 222300Z 2300/2324 16008KT 9999 FEW015 BKN025 BECMG 2300/2303 20010KT TEMPO 2301/2308 5000 -RADZ SCT008 BKN012 BECMG 2306/2308 24014KT BECMG 2314/2316 21008KT